Tin City, Alaska
Current Conditions -  °F | °C
As of 11:14 PM on Saturday 25 Oct 2014 (Local Time) from PATC Reporting Station
Overcast Overcast  
Wind Chill: 20°   Ceiling: 900
Heat Index: 32°   Visibility: 6mi
Dew Point: 32°   Wind: 18mph
Humidity: 100%   Direction: 180°S
Pressure: 29.35"   Gusts: NA
Location:  65.56°N, 167.92°W
Report Text: PATC 260714Z AUTO 18016KT 6SM OVC009 00/00 A2935 RMK AO2 SLP941
Loading
Personal Weather Stations






























Interactive Weather Map
Tropical Storm Tracking
New forecast layout! Learn more

10-Day Weather Forecast

Advertisements
Track Severe Weather on mobile